Time;durP1;ratioP1;P1;durP2;ratioP2;P2;SDS_P1;SDS_P2;PMS_P1;PMS_P2;Temp;Humidity;BMP_temperature;BMP_pressure;BME280_temperature;BME280_humidity;BME280_pressure;Samples;Min_cycle;Max_cycle;Signal;HPM_P1;HPM_P2
2021/10/09 00:00:19;;;;;;;71.17;28.03;;;;;;;;;;4949267;28;20244;-76
2021/10/09 00:02:46;;;;;;;72.53;27.47;;;;;;;;;;4952956;28;20300;-76
2021/10/09 00:05:14;;;;;;;71.77;26.47;;;;;;;;;;4954971;28;20292;-76
2021/10/09 00:07:41;;;;;;;63.77;26.90;;;;;;;;;;4949171;28;20608;-76
2021/10/09 00:10:09;;;;;;;66.30;27.17;;;;;;;;;;4950088;28;20241;-76
2021/10/09 00:12:36;;;;;;;69.03;27.37;;;;;;;;;;4950301;28;20631;-76
2021/10/09 00:15:04;;;;;;;64.33;25.23;;;;;;;;;;4950559;28;20326;-76
2021/10/09 00:17:33;;;;;;;61.00;24.90;;;;;;;;;;4949248;28;20226;-76
2021/10/09 00:20:00;;;;;;;61.43;24.80;;;;;;;;;;4948665;28;20980;-77
2021/10/09 00:22:27;;;;;;;61.63;24.13;;;;;;;;;;4947889;28;20205;-76
2021/10/09 00:24:55;;;;;;;58.67;25.10;;;;;;;;;;4950206;28;20732;-76
2021/10/09 00:27:22;;;;;;;68.97;26.23;;;;;;;;;;4948313;28;20225;-76
2021/10/09 00:29:49;;;;;;;65.40;24.93;;;;;;;;;;4949089;28;20308;-76
2021/10/09 00:32:16;;;;;;;58.60;25.27;;;;;;;;;;4949639;28;20747;-76
2021/10/09 00:34:45;;;;;;;69.10;27.90;;;;;;;;;;4950701;28;20298;-76
2021/10/09 00:37:12;;;;;;;69.10;27.00;;;;;;;;;;4951445;28;20239;-77
2021/10/09 00:39:39;;;;;;;67.83;27.40;;;;;;;;;;4948281;28;20823;-76
2021/10/09 00:42:07;;;;;;;61.63;25.77;;;;;;;;;;4951691;28;20607;-76
2021/10/09 00:44:34;;;;;;;74.63;27.70;;;;;;;;;;4948866;28;20225;-76
2021/10/09 00:47:02;;;;;;;66.87;27.27;;;;;;;;;;4950739;28;20289;-77
2021/10/09 00:49:30;;;;;;;66.30;25.50;;;;;;;;;;4950303;28;20206;-76
2021/10/09 00:51:59;;;;;;;62.63;25.03;;;;;;;;;;4949482;28;20394;-76
2021/10/09 00:54:27;;;;;;;66.90;26.80;;;;;;;;;;4947884;28;20207;-76
2021/10/09 00:56:57;;;;;;;68.37;27.30;;;;;;;;;;4950531;28;20201;-76
2021/10/09 00:59:26;;;;;;;64.50;25.10;;;;;;;;;;4950174;28;20230;-76
2021/10/09 01:01:53;;;;;;;61.87;25.13;;;;;;;;;;4953424;28;20237;-76
2021/10/09 01:04:20;;;;;;;69.40;26.53;;;;;;;;;;4952846;28;20300;-77
2021/10/09 01:06:48;;;;;;;71.40;27.83;;;;;;;;;;4949771;28;20231;-76
2021/10/09 01:09:16;;;;;;;63.67;25.87;;;;;;;;;;4953675;28;20345;-76
2021/10/09 01:11:43;;;;;;;59.47;24.57;;;;;;;;;;4952117;28;20425;-76
2021/10/09 01:14:11;;;;;;;66.10;25.30;;;;;;;;;;4954667;28;20944;-76
2021/10/09 01:16:38;;;;;;;68.73;26.53;;;;;;;;;;4957993;28;20819;-76
2021/10/09 01:19:07;;;;;;;64.40;27.67;;;;;;;;;;4952415;28;20317;-76
2021/10/09 01:21:43;;;;;;;65.50;26.07;;;;;;;;;;4955355;28;20232;-77
2021/10/09 01:24:10;;;;;;;71.13;27.20;;;;;;;;;;4952176;28;20270;-76
2021/10/09 01:26:38;;;;;;;61.93;26.00;;;;;;;;;;4952782;28;20356;-76
2021/10/09 01:29:05;;;;;;;67.93;27.37;;;;;;;;;;4954619;28;20289;-76
2021/10/09 01:31:33;;;;;;;70.97;28.03;;;;;;;;;;4952362;28;20226;-76
2021/10/09 01:34:00;;;;;;;67.37;25.67;;;;;;;;;;4953013;28;20639;-76
2021/10/09 01:36:29;;;;;;;66.17;25.63;;;;;;;;;;4952806;28;20210;-76
2021/10/09 01:38:58;;;;;;;64.67;25.20;;;;;;;;;;4953284;28;20222;-76
2021/10/09 01:41:25;;;;;;;59.60;23.47;;;;;;;;;;4954937;28;20247;-77
2021/10/09 01:43:52;;;;;;;70.53;26.03;;;;;;;;;;4951653;28;20211;-76
2021/10/09 01:46:19;;;;;;;73.00;26.87;;;;;;;;;;4952037;28;20216;-76
2021/10/09 01:48:47;;;;;;;67.40;26.53;;;;;;;;;;4952288;28;20656;-77
2021/10/09 01:51:14;;;;;;;62.77;25.90;;;;;;;;;;4953117;28;20962;-77
2021/10/09 01:53:42;;;;;;;62.83;25.03;;;;;;;;;;4953977;28;20229;-77
2021/10/09 01:56:10;;;;;;;65.33;25.27;;;;;;;;;;4953030;28;20787;-77
2021/10/09 01:58:38;;;;;;;66.23;27.20;;;;;;;;;;4956410;28;20801;-77
2021/10/09 02:01:05;;;;;;;60.33;24.90;;;;;;;;;;4954009;28;20255;-78
2021/10/09 02:03:32;;;;;;;62.73;25.50;;;;;;;;;;4951993;28;20309;-78
2021/10/09 02:05:59;;;;;;;59.10;24.93;;;;;;;;;;4953798;28;20291;-78
2021/10/09 02:08:26;;;;;;;61.73;25.60;;;;;;;;;;4955348;28;20213;-77
2021/10/09 02:10:57;;;;;;;70.37;25.63;;;;;;;;;;4955664;28;20343;-78
2021/10/09 02:13:29;;;;;;;63.80;25.27;;;;;;;;;;4961126;28;20229;-77
2021/10/09 02:16:02;;;;;;;59.30;25.23;;;;;;;;;;4978884;28;20209;-78
2021/10/09 02:18:59;;;;;;;62.17;25.57;;;;;;;;;;4962265;28;20226;-76
2021/10/09 02:24:26;;;;;;;66.67;25.37;;;;;;;;;;4949788;28;20209;-77
2021/10/09 02:26:53;;;;;;;60.93;23.67;;;;;;;;;;4954146;28;20274;-77
2021/10/09 02:29:22;;;;;;;60.73;23.60;;;;;;;;;;4952369;28;20204;-77
2021/10/09 02:31:49;;;;;;;62.30;25.33;;;;;;;;;;4951501;28;20286;-76
2021/10/09 02:34:16;;;;;;;65.60;25.70;;;;;;;;;;4954480;28;21842;-77
2021/10/09 02:36:43;;;;;;;60.10;24.07;;;;;;;;;;4953379;28;20229;-77
2021/10/09 02:39:11;;;;;;;59.07;24.70;;;;;;;;;;4952329;28;20360;-77
2021/10/09 02:41:38;;;;;;;65.17;25.17;;;;;;;;;;4951640;28;20710;-76
2021/10/09 02:44:06;;;;;;;67.20;25.93;;;;;;;;;;4951912;28;20210;-77
2021/10/09 02:46:35;;;;;;;57.77;24.20;;;;;;;;;;4956047;28;20284;-77
2021/10/09 02:49:02;;;;;;;68.77;25.83;;;;;;;;;;4956627;28;20279;-77
2021/10/09 02:51:29;;;;;;;69.13;26.40;;;;;;;;;;4957193;28;20248;-77
2021/10/09 02:53:57;;;;;;;64.70;27.40;;;;;;;;;;4955061;28;20288;-77
2021/10/09 02:56:24;;;;;;;71.20;26.13;;;;;;;;;;4956901;28;20752;-77
2021/10/09 02:58:51;;;;;;;68.17;25.83;;;;;;;;;;4957961;28;20361;-77
2021/10/09 03:01:18;;;;;;;73.23;25.87;;;;;;;;;;4956162;28;20300;-77
2021/10/09 03:03:47;;;;;;;63.53;25.27;;;;;;;;;;4955016;28;20241;-77
2021/10/09 03:06:14;;;;;;;67.20;25.73;;;;;;;;;;4960270;28;20301;-77
2021/10/09 03:08:41;;;;;;;59.90;24.70;;;;;;;;;;4957356;28;20291;-77
2021/10/09 03:11:08;;;;;;;64.80;24.93;;;;;;;;;;4953553;28;20233;-78
2021/10/09 03:13:35;;;;;;;72.53;25.23;;;;;;;;;;4953349;28;20607;-77
2021/10/09 03:16:03;;;;;;;62.63;24.67;;;;;;;;;;4956260;28;20210;-77
2021/10/09 03:18:30;;;;;;;55.90;24.23;;;;;;;;;;4960359;28;20316;-77
2021/10/09 03:20:58;;;;;;;69.27;26.67;;;;;;;;;;4977237;28;20297;-77
2021/10/09 03:23:26;;;;;;;70.97;26.87;;;;;;;;;;4976711;28;20327;-77
2021/10/09 03:25:53;;;;;;;64.83;25.40;;;;;;;;;;4956422;28;20229;-77
2021/10/09 03:28:20;;;;;;;64.00;25.13;;;;;;;;;;4954548;28;20213;-77
2021/10/09 03:30:47;;;;;;;68.80;25.83;;;;;;;;;;4954911;28;20229;-77
2021/10/09 03:33:14;;;;;;;64.80;25.47;;;;;;;;;;4957462;28;20304;-77
2021/10/09 03:35:42;;;;;;;68.70;25.00;;;;;;;;;;4956166;28;20704;-78
2021/10/09 03:38:10;;;;;;;66.37;26.87;;;;;;;;;;4954564;28;20229;-77
2021/10/09 03:40:39;;;;;;;68.40;25.90;;;;;;;;;;4954704;28;20254;-77
2021/10/09 03:43:09;;;;;;;73.67;26.60;;;;;;;;;;4954909;28;20207;-78
2021/10/09 03:45:40;;;;;;;71.07;25.87;;;;;;;;;;4955683;28;20296;-77
2021/10/09 03:48:16;;;;;;;69.73;26.40;;;;;;;;;;4958566;28;20220;-77
2021/10/09 03:53:29;;;;;;;63.80;24.37;;;;;;;;;;4957400;28;20255;-77
2021/10/09 03:55:57;;;;;;;65.30;26.17;;;;;;;;;;4954231;28;20209;-77
2021/10/09 03:58:24;;;;;;;76.23;25.17;;;;;;;;;;4953746;28;20206;-78
2021/10/09 04:00:51;;;;;;;63.07;25.20;;;;;;;;;;4950980;28;20691;-77
2021/10/09 04:03:18;;;;;;;72.57;26.20;;;;;;;;;;4947248;28;20293;-77
2021/10/09 04:05:45;;;;;;;71.63;26.07;;;;;;;;;;4953844;28;20663;-77
2021/10/09 04:08:13;;;;;;;72.47;26.37;;;;;;;;;;4950278;28;20301;-77
2021/10/09 04:10:41;;;;;;;62.93;24.80;;;;;;;;;;4950259;28;21019;-77
2021/10/09 04:13:09;;;;;;;75.33;26.87;;;;;;;;;;4949407;28;20210;-77
2021/10/09 04:15:36;;;;;;;68.53;25.37;;;;;;;;;;4953284;28;20814;-77
2021/10/09 04:18:03;;;;;;;69.27;25.60;;;;;;;;;;4950640;28;20293;-77
2021/10/09 04:20:30;;;;;;;69.00;25.90;;;;;;;;;;4953315;28;20241;-76
2021/10/09 04:22:58;;;;;;;66.33;25.27;;;;;;;;;;4950724;28;20280;-76
2021/10/09 04:25:25;;;;;;;66.23;25.90;;;;;;;;;;4951269;28;20206;-76
2021/10/09 04:27:53;;;;;;;65.40;25.07;;;;;;;;;;4951046;28;20296;-76
2021/10/09 04:30:21;;;;;;;64.37;25.50;;;;;;;;;;4952674;28;20703;-76
2021/10/09 04:32:48;;;;;;;68.37;26.13;;;;;;;;;;4949745;28;20214;-76
2021/10/09 04:35:16;;;;;;;72.40;27.03;;;;;;;;;;4950133;28;20222;-76
2021/10/09 04:37:43;;;;;;;78.23;26.53;;;;;;;;;;4948392;28;20559;-76
2021/10/09 04:40:11;;;;;;;70.93;25.57;;;;;;;;;;4949902;28;20237;-76
2021/10/09 04:42:38;;;;;;;83.17;28.90;;;;;;;;;;4950987;28;20298;-76
2021/10/09 04:45:07;;;;;;;72.43;27.07;;;;;;;;;;4951127;28;20208;-76
2021/10/09 04:47:35;;;;;;;78.37;27.57;;;;;;;;;;4947930;28;20309;-74
2021/10/09 04:50:02;;;;;;;74.27;26.87;;;;;;;;;;4950141;28;20232;-75
2021/10/09 04:52:29;;;;;;;78.20;27.60;;;;;;;;;;4958380;28;20219;-76
2021/10/09 04:54:56;;;;;;;70.87;27.63;;;;;;;;;;4957671;28;20206;-76
2021/10/09 04:57:24;;;;;;;81.37;28.23;;;;;;;;;;4956371;28;20281;-76
2021/10/09 04:59:53;;;;;;;76.00;27.17;;;;;;;;;;4959871;28;20678;-76
2021/10/09 05:02:22;;;;;;;98.47;29.30;;;;;;;;;;4959282;28;20220;-77
2021/10/09 05:04:49;;;;;;;89.73;28.60;;;;;;;;;;4967502;28;20325;-77
2021/10/09 05:07:16;;;;;;;92.27;27.87;;;;;;;;;;4967929;28;20300;-77
2021/10/09 05:09:43;;;;;;;80.73;27.77;;;;;;;;;;4969791;28;20787;-76
2021/10/09 05:12:10;;;;;;;108.57;28.20;;;;;;;;;;4967837;28;20668;-77
2021/10/09 05:14:38;;;;;;;88.20;26.93;;;;;;;;;;4968555;28;20320;-77
2021/10/09 05:17:05;;;;;;;121.07;28.27;;;;;;;;;;4970772;28;20243;-77
2021/10/09 05:19:33;;;;;;;99.53;29.93;;;;;;;;;;4967009;28;20229;-77
2021/10/09 05:22:00;;;;;;;84.20;26.87;;;;;;;;;;4966266;28;20202;-77
2021/10/09 05:24:28;;;;;;;87.50;28.10;;;;;;;;;;4971780;28;20213;-77
2021/10/09 05:26:56;;;;;;;77.57;27.00;;;;;;;;;;4968709;28;20210;-77
2021/10/09 05:29:23;;;;;;;96.37;28.13;;;;;;;;;;4969664;28;20601;-77
2021/10/09 05:31:52;;;;;;;83.60;26.57;;;;;;;;;;4968596;28;20213;-77
2021/10/09 05:34:19;;;;;;;72.13;26.27;;;;;;;;;;4971485;28;20320;-77
2021/10/09 05:36:48;;;;;;;126.73;27.77;;;;;;;;;;4969187;28;20244;-77
2021/10/09 05:39:15;;;;;;;84.43;26.37;;;;;;;;;;4967594;28;20237;-76
2021/10/09 05:41:42;;;;;;;117.43;28.20;;;;;;;;;;4971213;28;20307;-77
2021/10/09 05:44:10;;;;;;;74.70;26.77;;;;;;;;;;4970685;28;20818;-76
2021/10/09 05:46:37;;;;;;;75.40;27.00;;;;;;;;;;4970596;28;20288;-76
2021/10/09 05:49:05;;;;;;;72.40;26.70;;;;;;;;;;4968657;28;20201;-76
2021/10/09 05:51:33;;;;;;;79.57;26.77;;;;;;;;;;4970896;28;20241;-76
2021/10/09 05:54:12;;;;;;;66.97;26.70;;;;;;;;;;4968379;28;20230;-76
2021/10/09 05:56:48;;;;;;;70.03;26.63;;;;;;;;;;4971039;28;20214;-76
2021/10/09 06:37:23;;;;;;;74.80;23.47;;;;;;;;;;4964208;28;20204;-75
2021/10/09 07:00:18;;;;;;;61.33;21.93;;;;;;;;;;4966629;28;20240;-75
2021/10/09 07:02:45;;;;;;;57.70;22.00;;;;;;;;;;4969473;28;20610;-75
2021/10/09 07:05:14;;;;;;;63.10;22.40;;;;;;;;;;4972278;28;20723;-75
2021/10/09 07:07:43;;;;;;;53.53;22.97;;;;;;;;;;4970591;28;20686;-76
2021/10/09 07:10:11;;;;;;;53.07;22.33;;;;;;;;;;4965439;28;20222;-76
2021/10/09 07:12:38;;;;;;;49.70;22.37;;;;;;;;;;4971572;28;20206;-76
2021/10/09 07:15:06;;;;;;;44.60;21.50;;;;;;;;;;4968803;28;20201;-75
2021/10/09 07:17:35;;;;;;;51.27;21.10;;;;;;;;;;4968030;28;20208;-75
2021/10/09 07:20:04;;;;;;;50.23;22.13;;;;;;;;;;4965315;28;20226;-75
2021/10/09 07:22:31;;;;;;;48.17;20.90;;;;;;;;;;4972479;28;20305;-75
2021/10/09 07:24:58;;;;;;;41.70;19.10;;;;;;;;;;4972317;28;20676;-76
2021/10/09 07:27:26;;;;;;;38.33;19.00;;;;;;;;;;4962507;28;20277;-75
2021/10/09 07:29:53;;;;;;;40.83;19.13;;;;;;;;;;4961569;28;20221;-75
2021/10/09 07:32:21;;;;;;;39.17;18.73;;;;;;;;;;4971044;28;20229;-76
2021/10/09 07:34:49;;;;;;;36.80;17.43;;;;;;;;;;4969429;28;20341;-76
2021/10/09 07:37:17;;;;;;;35.27;16.33;;;;;;;;;;5174756;23;20267;-76
2021/10/09 07:39:44;;;;;;;34.27;15.53;;;;;;;;;;4973851;28;20630;-76
2021/10/09 07:42:11;;;;;;;29.00;14.80;;;;;;;;;;4970355;28;20321;-76
2021/10/09 07:44:38;;;;;;;25.17;14.43;;;;;;;;;;4971310;28;20300;-76
2021/10/09 07:47:06;;;;;;;28.73;15.73;;;;;;;;;;4971162;28;20197;-76
2021/10/09 07:49:33;;;;;;;23.67;14.03;;;;;;;;;;4965862;28;20229;-77
2021/10/09 07:52:02;;;;;;;27.63;14.03;;;;;;;;;;4968451;28;20292;-78
2021/10/09 07:54:29;;;;;;;27.00;14.03;;;;;;;;;;4969650;28;20242;-77
2021/10/09 07:56:56;;;;;;;27.47;13.83;;;;;;;;;;4970589;28;20653;-78
2021/10/09 07:59:24;;;;;;;26.57;14.17;;;;;;;;;;4973657;28;20666;-77
2021/10/09 08:01:51;;;;;;;19.47;11.50;;;;;;;;;;4967607;28;20213;-76
2021/10/09 08:04:18;;;;;;;30.67;15.13;;;;;;;;;;4967187;28;20317;-76
2021/10/09 08:06:45;;;;;;;25.00;13.43;;;;;;;;;;4965434;28;20656;-76
2021/10/09 08:09:14;;;;;;;25.30;14.03;;;;;;;;;;4960171;28;20216;-76
2021/10/09 08:11:42;;;;;;;26.33;14.37;;;;;;;;;;4965694;28;20731;-77
2021/10/09 08:14:09;;;;;;;24.63;13.87;;;;;;;;;;4969914;28;20304;-76
2021/10/09 08:16:37;;;;;;;21.30;12.30;;;;;;;;;;4969677;28;20215;-76
2021/10/09 08:19:04;;;;;;;21.87;12.87;;;;;;;;;;4964005;28;20301;-77
2021/10/09 08:21:33;;;;;;;23.17;12.83;;;;;;;;;;4960903;28;20644;-78
2021/10/09 08:24:07;;;;;;;20.70;11.37;;;;;;;;;;4967675;28;20213;-77
2021/10/09 08:40:27;;;;;;;22.93;12.50;;;;;;;;;;4946772;28;20232;-77
2021/10/09 08:42:56;;;;;;;23.93;13.03;;;;;;;;;;4946586;28;20303;-76
2021/10/09 08:45:23;;;;;;;20.97;11.53;;;;;;;;;;4954433;28;20290;-76
2021/10/09 08:47:50;;;;;;;23.77;12.07;;;;;;;;;;4945072;28;20201;-76
2021/10/09 08:50:18;;;;;;;21.63;12.53;;;;;;;;;;4942228;28;20222;-75
2021/10/09 08:52:58;;;;;;;26.07;12.37;;;;;;;;;;4943034;28;20201;-75
2021/10/09 08:55:26;;;;;;;26.13;12.47;;;;;;;;;;4945565;28;20205;-75
2021/10/09 08:57:56;;;;;;;28.87;13.43;;;;;;;;;;4947812;28;20216;-75
2021/10/09 09:00:41;;;;;;;30.43;13.73;;;;;;;;;;4944522;28;20262;-75
2021/10/09 09:03:12;;;;;;;25.33;12.93;;;;;;;;;;4945464;28;20206;-75
2021/10/09 09:05:46;;;;;;;20.30;10.60;;;;;;;;;;4948325;28;20210;-76
2021/10/09 09:08:25;;;;;;;32.70;12.50;;;;;;;;;;4951237;28;20208;-75
2021/10/09 09:27:50;;;;;;;25.53;10.67;;;;;;;;;;4957709;28;20303;-77
2021/10/09 09:36:20;;;;;;;25.30;11.40;;;;;;;;;;4932401;28;21071;-77
2021/10/09 09:39:07;;;;;;;23.50;11.43;;;;;;;;;;4956186;28;20667;-77
2021/10/09 09:41:43;;;;;;;27.13;12.43;;;;;;;;;;4956350;28;20236;-77
2021/10/09 09:44:11;;;;;;;24.73;11.00;;;;;;;;;;4959340;28;20210;-77
2021/10/09 09:46:39;;;;;;;24.37;11.73;;;;;;;;;;4959409;28;20205;-77
2021/10/09 09:49:08;;;;;;;25.50;11.00;;;;;;;;;;4963003;28;20216;-77
2021/10/09 09:51:39;;;;;;;20.60;9.80;;;;;;;;;;4964873;28;20770;-77
2021/10/09 09:54:07;;;;;;;21.03;10.23;;;;;;;;;;4958416;28;20217;-77
2021/10/09 09:56:34;;;;;;;14.90;8.97;;;;;;;;;;4960977;28;20213;-77
2021/10/09 09:59:02;;;;;;;21.10;10.27;;;;;;;;;;4958112;28;20358;-75
2021/10/09 10:01:34;;;;;;;18.47;10.00;;;;;;;;;;4954676;28;20225;-75
2021/10/09 10:04:01;;;;;;;17.53;9.87;;;;;;;;;;4960399;28;21218;-76
2021/10/09 10:06:30;;;;;;;25.50;10.27;;;;;;;;;;4955855;28;20216;-76
2021/10/09 10:08:58;;;;;;;19.00;10.13;;;;;;;;;;4963041;28;20205;-76
2021/10/09 10:11:25;;;;;;;18.27;8.97;;;;;;;;;;4959761;28;20958;-76
2021/10/09 10:13:53;;;;;;;18.27;9.33;;;;;;;;;;4957963;28;20248;-76
2021/10/09 10:16:20;;;;;;;24.47;9.00;;;;;;;;;;4959943;28;20712;-75
2021/10/09 10:18:51;;;;;;;16.57;8.63;;;;;;;;;;4964349;28;20356;-76
2021/10/09 10:21:19;;;;;;;16.43;8.40;;;;;;;;;;4962211;28;20712;-76
2021/10/09 10:23:48;;;;;;;17.07;8.60;;;;;;;;;;4961893;28;20193;-81
2021/10/09 10:26:26;;;;;;;17.43;8.03;;;;;;;;;;4960872;28;20296;-77
2021/10/09 10:29:14;;;;;;;18.53;8.67;;;;;;;;;;4962048;28;20206;-77
2021/10/09 10:32:02;;;;;;;18.47;8.10;;;;;;;;;;4950404;28;20313;-76
2021/10/09 10:34:30;;;;;;;22.83;8.10;;;;;;;;;;4954501;28;20237;-76
2021/10/09 10:36:57;;;;;;;16.47;7.80;;;;;;;;;;4962127;28;20301;-77
2021/10/09 10:39:38;;;;;;;21.07;7.57;;;;;;;;;;4970041;28;20205;-77
2021/10/09 10:42:08;;;;;;;22.20;7.00;;;;;;;;;;4976311;28;20244;-76
2021/10/09 10:44:53;;;;;;;15.27;6.80;;;;;;;;;;4966886;28;20289;-75
2021/10/09 10:47:41;;;;;;;18.03;6.63;;;;;;;;;;4966478;28;20221;-76
2021/10/09 10:50:19;;;;;;;17.40;6.63;;;;;;;;;;4973675;28;20221;-76
2021/10/09 10:52:52;;;;;;;18.53;6.43;;;;;;;;;;4971132;28;20221;-76
2021/10/09 10:55:20;;;;;;;17.53;6.77;;;;;;;;;;4967609;28;20206;-76
2021/10/09 10:58:02;;;;;;;15.23;6.83;;;;;;;;;;4976035;28;20256;-76
2021/10/09 11:00:29;;;;;;;21.50;6.83;;;;;;;;;;4972565;28;20308;-76
2021/10/09 11:02:57;;;;;;;15.67;6.57;;;;;;;;;;4967527;28;20297;-76
2021/10/09 11:05:25;;;;;;;12.00;6.20;;;;;;;;;;4959728;28;20296;-76
2021/10/09 11:07:53;;;;;;;14.63;6.93;;;;;;;;;;4967232;28;20214;-76
2021/10/09 11:10:22;;;;;;;12.20;5.63;;;;;;;;;;4965458;28;20233;-76
2021/10/09 11:12:50;;;;;;;15.07;6.10;;;;;;;;;;4971110;28;20240;-76
2021/10/09 11:15:22;;;;;;;14.57;5.77;;;;;;;;;;4969517;28;20197;-76
2021/10/09 11:17:51;;;;;;;12.00;6.13;;;;;;;;;;4961684;28;20623;-76
2021/10/09 11:20:25;;;;;;;13.07;6.20;;;;;;;;;;4965794;28;20316;-76
2021/10/09 11:22:53;;;;;;;14.93;6.67;;;;;;;;;;4970688;28;20272;-76
2021/10/09 11:25:30;;;;;;;12.60;6.80;;;;;;;;;;4968883;28;21115;-76
2021/10/09 11:27:58;;;;;;;14.17;6.47;;;;;;;;;;4969827;28;20201;-75
2021/10/09 11:30:26;;;;;;;13.10;6.27;;;;;;;;;;4960980;28;20258;-76
2021/10/09 11:32:54;;;;;;;14.10;6.73;;;;;;;;;;4968548;28;20292;-76
2021/10/09 11:35:29;;;;;;;11.67;6.00;;;;;;;;;;4973125;28;20209;-78
2021/10/09 11:37:57;;;;;;;13.33;6.00;;;;;;;;;;4975330;28;20194;-78
2021/10/09 11:40:33;;;;;;;14.40;6.23;;;;;;;;;;4970517;28;20221;-77
2021/10/09 11:43:10;;;;;;;10.67;5.70;;;;;;;;;;4967913;28;20205;-77
2021/10/09 11:45:42;;;;;;;16.27;5.93;;;;;;;;;;4969126;28;20197;-77
2021/10/09 11:56:52;;;;;;;17.00;5.80;;;;;;;;;;4953091;28;20221;-76
2021/10/09 11:59:34;;;;;;;13.73;5.50;;;;;;;;;;4960752;28;20210;-76
2021/10/09 12:02:02;;;;;;;12.60;5.27;;;;;;;;;;4959623;28;20255;-76
2021/10/09 12:04:33;;;;;;;12.40;5.60;;;;;;;;;;4960979;28;20216;-77
2021/10/09 12:07:08;;;;;;;15.10;5.77;;;;;;;;;;4950748;28;20340;-76
2021/10/09 12:09:36;;;;;;;12.43;5.77;;;;;;;;;;4948072;28;20201;-75
2021/10/09 12:12:15;;;;;;;13.63;5.30;;;;;;;;;;4962798;28;21065;-76
2021/10/09 12:14:42;;;;;;;10.40;5.10;;;;;;;;;;4965818;28;20292;-79
2021/10/09 12:17:09;;;;;;;14.67;5.37;;;;;;;;;;4967122;28;20606;-75
2021/10/09 12:19:37;;;;;;;12.00;5.27;;;;;;;;;;4961995;28;20679;-76
2021/10/09 12:22:06;;;;;;;10.40;5.57;;;;;;;;;;4958690;28;20233;-76
2021/10/09 12:24:34;;;;;;;12.97;5.37;;;;;;;;;;4960564;28;20201;-76
2021/10/09 12:27:03;;;;;;;13.60;5.40;;;;;;;;;;4958810;28;20315;-76
2021/10/09 12:29:32;;;;;;;12.27;5.67;;;;;;;;;;4943186;28;20663;-75
2021/10/09 12:32:14;;;;;;;12.73;5.20;;;;;;;;;;4957783;28;20210;-75
2021/10/09 12:34:42;;;;;;;14.13;5.30;;;;;;;;;;4950674;28;20206;-75
2021/10/09 12:37:10;;;;;;;12.67;5.07;;;;;;;;;;4946049;28;20304;-75
2021/10/09 12:39:37;;;;;;;12.30;4.70;;;;;;;;;;4951408;28;20336;-75
2021/10/09 12:42:04;;;;;;;8.73;4.47;;;;;;;;;;4946454;28;21702;-75
2021/10/09 12:44:33;;;;;;;9.67;5.17;;;;;;;;;;4946827;28;20901;-78
2021/10/09 12:47:00;;;;;;;9.73;4.80;;;;;;;;;;4954253;28;20663;-76
2021/10/09 12:49:27;;;;;;;8.07;4.80;;;;;;;;;;4945563;28;20585;-76
2021/10/09 12:51:59;;;;;;;9.60;4.80;;;;;;;;;;4952657;28;20301;-76
2021/10/09 12:54:29;;;;;;;11.10;5.43;;;;;;;;;;4952903;28;20661;-77
2021/10/09 12:56:57;;;;;;;17.70;5.27;;;;;;;;;;4957883;28;22677;-76
2021/10/09 12:59:24;;;;;;;10.10;5.00;;;;;;;;;;4952008;28;20209;-76
2021/10/09 13:01:53;;;;;;;13.20;5.00;;;;;;;;;;4949882;28;20225;-76
2021/10/09 13:04:20;;;;;;;12.87;5.10;;;;;;;;;;4949706;28;20210;-76
2021/10/09 13:06:47;;;;;;;8.77;5.00;;;;;;;;;;4945464;28;20336;-75
2021/10/09 13:09:15;;;;;;;9.80;5.10;;;;;;;;;;4963642;28;20201;-77
2021/10/09 13:11:49;;;;;;;8.67;5.00;;;;;;;;;;4970103;28;20210;-76
2021/10/09 13:14:16;;;;;;;10.77;5.13;;;;;;;;;;4964949;28;20217;-79
2021/10/09 13:16:46;;;;;;;12.77;5.10;;;;;;;;;;4970843;28;20224;-80
2021/10/09 13:19:14;;;;;;;12.47;4.93;;;;;;;;;;4968144;28;20205;-78
2021/10/09 13:21:42;;;;;;;9.27;4.80;;;;;;;;;;4971382;28;20214;-78
2021/10/09 13:24:09;;;;;;;10.67;4.90;;;;;;;;;;4974747;28;20221;-79
2021/10/09 13:26:37;;;;;;;11.07;4.37;;;;;;;;;;4980627;28;20212;-79
2021/10/09 13:29:05;;;;;;;10.53;4.83;;;;;;;;;;4974119;28;20217;-78
2021/10/09 13:31:33;;;;;;;9.40;4.33;;;;;;;;;;4959668;28;20276;-78
2021/10/09 13:34:00;;;;;;;8.03;4.40;;;;;;;;;;4972948;28;20209;-77
2021/10/09 13:36:29;;;;;;;7.53;4.13;;;;;;;;;;4981238;28;20248;-78
2021/10/09 13:38:56;;;;;;;12.07;4.73;;;;;;;;;;4973344;28;20256;-77
2021/10/09 13:41:23;;;;;;;9.30;4.27;;;;;;;;;;4965868;28;21348;-77
2021/10/09 13:43:50;;;;;;;11.67;4.20;;;;;;;;;;4967245;28;20253;-77
2021/10/09 13:49:21;;;;;;;9.60;4.40;;;;;;;;;;4963253;28;20188;-76
2021/10/09 13:51:49;;;;;;;9.60;3.77;;;;;;;;;;4968698;28;20202;-76
2021/10/09 13:54:16;;;;;;;10.10;3.80;;;;;;;;;;4960689;28;20329;-79
2021/10/09 13:56:43;;;;;;;14.60;3.90;;;;;;;;;;4960811;28;20289;-78
2021/10/09 13:59:11;;;;;;;8.63;3.43;;;;;;;;;;4963216;28;20216;-79
2021/10/09 14:01:38;;;;;;;7.23;3.43;;;;;;;;;;4963987;28;21013;-79
2021/10/09 14:04:05;;;;;;;6.60;3.90;;;;;;;;;;4966830;28;20280;-79
2021/10/09 14:06:32;;;;;;;9.83;3.70;;;;;;;;;;4959468;28;20289;-78
2021/10/09 14:09:01;;;;;;;7.17;3.63;;;;;;;;;;4967207;28;20289;-77
2021/10/09 14:11:28;;;;;;;9.43;3.47;;;;;;;;;;4963123;28;20317;-78
2021/10/09 14:13:55;;;;;;;6.70;3.70;;;;;;;;;;4960837;28;20432;-78
2021/10/09 14:19:26;;;;;;;11.50;4.30;;;;;;;;;;4955608;28;20264;-78
2021/10/09 14:21:53;;;;;;;6.67;4.07;;;;;;;;;;4960649;28;20213;-78
2021/10/09 14:24:22;;;;;;;7.77;3.93;;;;;;;;;;4968368;28;20293;-78
2021/10/09 14:26:49;;;;;;;6.73;3.87;;;;;;;;;;4969126;28;20265;-83
2021/10/09 14:31:46;;;;;;;7.03;4.03;;;;;;;;;;5289050;23;20249;-78
2021/10/09 14:34:13;;;;;;;7.77;3.73;;;;;;;;;;4969997;28;20245;-79
2021/10/09 14:36:40;;;;;;;8.73;4.23;;;;;;;;;;4959376;28;20731;-82
2021/10/09 14:39:07;;;;;;;6.87;4.30;;;;;;;;;;4957875;28;20328;-79
2021/10/09 14:41:36;;;;;;;12.63;4.57;;;;;;;;;;4957034;28;20266;-79
2021/10/09 14:44:03;;;;;;;7.60;4.50;;;;;;;;;;4955332;28;20206;-78
2021/10/09 14:46:59;;;;;;;10.73;4.97;;;;;;;;;;4947964;28;20213;-77
2021/10/09 14:49:30;;;;;;;14.37;4.70;;;;;;;;;;4956416;28;20630;-77
2021/10/09 14:52:01;;;;;;;10.87;4.87;;;;;;;;;;4957934;28;20205;-77
2021/10/09 15:16:49;;;;;;;11.70;5.87;;;;;;;;;;4975293;28;20208;-77
2021/10/09 15:19:16;;;;;;;16.93;5.90;;;;;;;;;;4973636;28;20265;-78
2021/10/09 15:21:43;;;;;;;15.43;5.70;;;;;;;;;;4969549;28;20324;-78
2021/10/09 15:24:11;;;;;;;14.40;6.77;;;;;;;;;;4970332;28;20201;-78
2021/10/09 15:26:38;;;;;;;15.73;6.70;;;;;;;;;;4969424;28;20296;-77
2021/10/09 15:29:06;;;;;;;15.93;6.47;;;;;;;;;;4971879;28;20209;-78
2021/10/09 15:31:34;;;;;;;13.20;5.73;;;;;;;;;;4967851;28;20320;-78
2021/10/09 15:34:01;;;;;;;13.87;6.90;;;;;;;;;;4965450;28;20798;-77
2021/10/09 15:36:28;;;;;;;20.83;7.47;;;;;;;;;;4972269;28;20287;-78
2021/10/09 15:38:55;;;;;;;19.07;10.40;;;;;;;;;;4971221;28;20262;-78
2021/10/09 15:41:24;;;;;;;15.53;7.93;;;;;;;;;;4967112;28;20234;-78
2021/10/09 15:43:51;;;;;;;14.37;6.60;;;;;;;;;;4973086;28;20230;-79
2021/10/09 15:46:20;;;;;;;13.80;6.30;;;;;;;;;;4974507;28;20292;-78
2021/10/09 15:48:47;;;;;;;14.13;6.80;;;;;;;;;;4974177;28;20210;-78
2021/10/09 15:51:14;;;;;;;16.27;6.20;;;;;;;;;;4970435;28;20264;-78
2021/10/09 15:53:42;;;;;;;9.43;5.33;;;;;;;;;;4971066;28;20276;-77
2021/10/09 15:56:09;;;;;;;10.73;5.77;;;;;;;;;;4967689;28;20336;-77
2021/10/09 15:58:36;;;;;;;13.63;7.67;;;;;;;;;;4964179;28;21216;-78
2021/10/09 16:01:03;;;;;;;12.23;7.17;;;;;;;;;;4954637;28;20304;-82
2021/10/09 16:03:32;;;;;;;13.47;7.13;;;;;;;;;;4965227;28;20344;-77
2021/10/09 16:05:59;;;;;;;20.03;10.30;;;;;;;;;;4971905;28;20301;-78
2021/10/09 16:08:27;;;;;;;22.43;9.70;;;;;;;;;;4971258;28;20668;-78
2021/10/09 16:10:54;;;;;;;14.47;7.40;;;;;;;;;;4977437;28;20316;-77
2021/10/09 16:13:25;;;;;;;17.20;7.40;;;;;;;;;;4964753;28;20284;-78
2021/10/09 16:15:52;;;;;;;23.27;12.30;;;;;;;;;;4971311;28;20739;-78
2021/10/09 16:18:20;;;;;;;28.10;12.40;;;;;;;;;;4967052;28;20292;-79
2021/10/09 16:20:49;;;;;;;29.30;15.40;;;;;;;;;;4961940;28;20253;-77
2021/10/09 16:23:16;;;;;;;24.37;14.37;;;;;;;;;;4964080;28;20307;-78
2021/10/09 16:25:43;;;;;;;18.47;7.73;;;;;;;;;;4969543;28;20229;-79
2021/10/09 16:28:10;;;;;;;17.53;8.57;;;;;;;;;;4966871;28;20205;-78
2021/10/09 16:30:37;;;;;;;32.03;15.40;;;;;;;;;;4969589;28;20260;-80
2021/10/09 16:33:05;;;;;;;26.40;14.60;;;;;;;;;;4965599;28;20241;-78
2021/10/09 16:35:37;;;;;;;43.53;21.17;;;;;;;;;;4967316;28;20224;-80
2021/10/09 16:38:07;;;;;;;33.90;16.63;;;;;;;;;;4965865;28;20673;-79
2021/10/09 16:40:34;;;;;;;37.90;18.67;;;;;;;;;;4967596;28;20863;-81
2021/10/09 16:43:02;;;;;;;30.53;16.07;;;;;;;;;;4967715;28;20316;-79
2021/10/09 16:45:29;;;;;;;45.30;22.83;;;;;;;;;;4969985;28;20345;-78
2021/10/09 16:47:56;;;;;;;38.07;19.27;;;;;;;;;;4972482;28;20320;-80
2021/10/09 16:50:24;;;;;;;29.73;14.77;;;;;;;;;;4967837;28;20229;-80
2021/10/09 16:52:51;;;;;;;32.73;14.80;;;;;;;;;;4969546;28;20664;-77